Hovedside
METAR-TAF:

METAR-TAF

Lufthavner :

Kairo, Egypt

breddegrad: 30-08N, lengdegrad: 031-24E, høyde over havet: 64 m

Gjeldene værobservasjon

Denne rapporten ble laget for 17 minutter siden, klokken 04:30 UTC
Flau vind
Temperatur 23°C
Luftfuktighet 44%
Trykk 1012 hPa
Sikt: 6000 m

METAR: HECA 220430Z 00000KT 6000 NSC 23/10 Q1012 NOSIG

Tid: 06:47 (04:47 UTC)

Varsel

Denne rapporten ble laget for 5 timer og 47 minutter siden, klokken 23:00 UTC
Varsel gyldig fra 22. klokken 00 UTC til 23. klokken 06 UTC
Vind 8 kt fra Øst
Sikt 10 km eller mer
ingen skyer under 1500 m og ingen bygeskyer
Blir
fra 22. klokken 03 UTC til 22. klokken 05 UTC
Vind 10 kt fra Sør-sørvest

TAF: HECA 212300Z 2200/2306 09008KT CAVOK BECMG 2203/2205 20010KT

Værobservasjoner og værvarsel for over 4000 flyplasser (METAR- og TAF-rapporter).

Tilgjengelige stasjoner er representert av de røde og gule prikkene på kartet.

Hold musepekeren over prikken for å se navnet på stasjonen.

Klikk så for å se værobservasjoner og -varsler.

For å forandre kartet kan du klikke på den grønne knappen med svart kryss for å zoome inn, på den grønne knappen med strek for å zoome ut, eller på de grønne pilene for å se tilstøtende kart.


METAR-TAF: